createdAt,value
2018-12-11T00:00:14.453Z,3.30
2018-12-11T00:02:41.919Z,3.30
2018-12-11T00:05:09.613Z,3.30
2018-12-11T00:07:37.093Z,3.20
2018-12-11T00:10:05.244Z,3.20
2018-12-11T00:12:32.711Z,3.30
2018-12-11T00:15:00.196Z,3.30
2018-12-11T00:17:27.655Z,3.20
2018-12-11T00:19:55.152Z,3.30
2018-12-11T00:22:22.624Z,3.30
2018-12-11T00:24:50.111Z,3.20
2018-12-11T00:27:17.580Z,3.20
2018-12-11T00:29:45.064Z,3.20
2018-12-11T00:32:12.531Z,3.20
2018-12-11T00:34:40.019Z,3.20
2018-12-11T00:37:07.502Z,3.20
2018-12-11T00:39:34.955Z,3.20
2018-12-11T00:42:02.435Z,3.20
2018-12-11T00:44:29.911Z,3.20
2018-12-11T00:46:57.399Z,3.20
2018-12-11T00:49:24.881Z,3.20
2018-12-11T00:51:52.373Z,3.20
2018-12-11T00:54:19.847Z,3.20
2018-12-11T00:56:47.359Z,3.30
2018-12-11T00:59:14.831Z,3.30
2018-12-11T01:01:42.447Z,3.30
2018-12-11T01:04:10.264Z,3.30
2018-12-11T01:06:37.833Z,3.40
2018-12-11T01:09:06.221Z,3.40
2018-12-11T01:11:33.704Z,3.50
2018-12-11T01:14:01.176Z,3.40
2018-12-11T01:16:28.684Z,3.50
2018-12-11T01:18:56.163Z,3.50
2018-12-11T01:21:23.635Z,3.50
2018-12-11T01:23:51.149Z,3.40
2018-12-11T01:26:18.751Z,3.50
2018-12-11T01:28:46.901Z,3.50
2018-12-11T01:31:14.549Z,3.50
2018-12-11T01:33:42.036Z,3.50
2018-12-11T01:36:10.253Z,3.30
2018-12-11T01:38:37.740Z,3.20
2018-12-11T01:41:05.287Z,3.10
2018-12-11T01:43:32.800Z,3.00
2018-12-11T01:46:00.310Z,3.00
2018-12-11T01:48:27.856Z,3.00
2018-12-11T01:50:55.480Z,3.00
2018-12-11T01:53:23.097Z,3.00
2018-12-11T01:55:53.094Z,3.00
2018-12-11T01:58:20.613Z,3.10
2018-12-11T02:00:48.082Z,3.10
2018-12-11T02:03:15.587Z,3.10
2018-12-11T02:05:43.728Z,3.20
2018-12-11T02:08:11.250Z,3.20
2018-12-11T02:10:38.773Z,3.20
2018-12-11T02:13:06.243Z,3.20
2018-12-11T02:15:33.734Z,3.20
2018-12-11T02:18:01.207Z,3.10
2018-12-11T02:20:28.705Z,3.00
2018-12-11T02:22:56.357Z,3.00
2018-12-11T02:25:23.835Z,3.10
2018-12-11T02:27:51.854Z,3.20
2018-12-11T02:30:19.445Z,3.20
2018-12-11T02:32:46.930Z,3.20
2018-12-11T02:35:14.415Z,3.20
2018-12-11T02:37:42.909Z,3.20
2018-12-11T02:40:10.396Z,3.20
2018-12-11T02:42:37.859Z,3.20
2018-12-11T02:45:05.701Z,3.20
2018-12-11T02:47:33.173Z,3.10
2018-12-11T02:50:00.661Z,3.10
2018-12-11T02:52:28.125Z,3.00
2018-12-11T02:54:55.613Z,2.90
2018-12-11T02:57:23.190Z,2.80
2018-12-11T02:59:50.690Z,2.70
2018-12-11T03:02:18.162Z,2.70
2018-12-11T03:04:45.647Z,2.60
2018-12-11T03:07:13.640Z,2.70
2018-12-11T03:09:41.136Z,2.60
2018-12-11T03:12:08.695Z,2.70
2018-12-11T03:14:36.183Z,2.60
2018-12-11T03:17:03.731Z,2.70
2018-12-11T03:19:31.236Z,2.70
2018-12-11T03:21:58.699Z,2.80
2018-12-11T03:24:26.201Z,2.90
2018-12-11T03:26:53.707Z,2.90
2018-12-11T03:29:21.201Z,2.80
2018-12-11T03:31:48.746Z,2.90
2018-12-11T03:34:16.334Z,3.00
2018-12-11T03:36:43.892Z,3.10
2018-12-11T03:39:11.471Z,3.10
2018-12-11T03:41:39.052Z,3.10
2018-12-11T03:44:06.520Z,3.00
2018-12-11T03:46:34.021Z,3.00
2018-12-11T03:49:01.485Z,3.00
2018-12-11T03:51:29.070Z,3.00
2018-12-11T03:53:56.557Z,3.00
2018-12-11T03:56:24.052Z,3.00
2018-12-11T03:58:51.531Z,3.00
2018-12-11T04:01:19.003Z,2.90
2018-12-11T04:03:46.487Z,2.90
2018-12-11T04:06:13.991Z,2.90
2018-12-11T04:08:41.462Z,3.00
2018-12-11T04:11:08.931Z,3.00
2018-12-11T04:13:36.413Z,3.00
2018-12-11T04:16:03.956Z,3.00
2018-12-11T04:18:31.448Z,3.00
2018-12-11T04:20:58.922Z,3.00
2018-12-11T04:23:26.469Z,3.10
2018-12-11T04:25:54.131Z,3.00
2018-12-11T04:28:21.790Z,3.00
2018-12-11T04:30:49.444Z,3.00
2018-12-11T04:33:17.018Z,3.00
2018-12-11T04:35:44.850Z,3.00
2018-12-11T04:38:12.627Z,3.00
2018-12-11T04:40:40.091Z,3.00
2018-12-11T04:43:07.588Z,2.90
2018-12-11T04:45:35.100Z,2.90
2018-12-11T04:48:02.591Z,2.90
2018-12-11T04:50:30.063Z,2.90
2018-12-11T04:52:57.559Z,2.90
2018-12-11T04:55:25.044Z,2.90
2018-12-11T04:57:52.515Z,2.90
2018-12-11T05:00:20.823Z,2.90
2018-12-11T05:02:48.567Z,2.90
2018-12-11T05:05:16.059Z,2.80
2018-12-11T05:07:43.570Z,2.80
2018-12-11T05:10:11.842Z,2.80
2018-12-11T05:12:39.320Z,2.70
2018-12-11T05:15:06.964Z,2.70
2018-12-11T05:17:34.435Z,2.70
2018-12-11T05:20:01.898Z,2.70
2018-12-11T05:22:29.393Z,2.70
2018-12-11T05:24:56.866Z,2.80
2018-12-11T05:27:25.128Z,2.80
2018-12-11T05:29:52.596Z,2.80
2018-12-11T05:32:20.176Z,2.80
2018-12-11T05:34:47.759Z,2.90
2018-12-11T05:37:15.419Z,2.90
2018-12-11T05:39:42.894Z,3.00
2018-12-11T05:42:10.419Z,3.00
2018-12-11T05:44:37.878Z,3.00
2018-12-11T05:47:06.431Z,3.00
2018-12-11T05:49:34.015Z,3.00
2018-12-11T05:52:02.917Z,3.00
2018-12-11T05:54:30.431Z,3.00
2018-12-11T05:56:57.992Z,3.00
2018-12-11T05:59:25.571Z,2.90
2018-12-11T06:01:53.207Z,2.90
2018-12-11T06:04:20.851Z,2.90
2018-12-11T06:06:49.129Z,2.90
2018-12-11T06:09:16.684Z,2.90
2018-12-11T06:11:44.393Z,3.00
2018-12-11T06:14:11.979Z,3.10
2018-12-11T06:16:39.523Z,3.10
2018-12-11T06:19:07.012Z,3.10
2018-12-11T06:21:34.592Z,2.90
2018-12-11T06:24:02.789Z,2.80
2018-12-11T06:26:30.414Z,2.60
2018-12-11T06:28:58.044Z,2.50
2018-12-11T06:31:25.681Z,2.50
2018-12-11T06:33:53.202Z,2.60
2018-12-11T06:36:20.684Z,2.50
2018-12-11T06:38:48.156Z,2.50
2018-12-11T06:41:15.639Z,2.60
2018-12-11T06:43:43.122Z,2.70
2018-12-11T06:46:10.611Z,2.70
2018-12-11T06:48:38.075Z,2.80
2018-12-11T06:51:05.591Z,2.80
2018-12-11T06:53:33.051Z,2.80
2018-12-11T06:56:00.539Z,2.70
2018-12-11T06:58:28.016Z,2.70
2018-12-11T07:00:55.495Z,2.70
2018-12-11T07:03:23.155Z,2.80
2018-12-11T07:05:50.721Z,2.80
2018-12-11T07:08:18.179Z,2.90
2018-12-11T07:10:45.655Z,2.90
2018-12-11T07:13:13.119Z,2.90
2018-12-11T07:15:40.619Z,2.90
2018-12-11T07:18:08.124Z,2.90
2018-12-11T07:20:35.799Z,2.90
2018-12-11T07:23:03.292Z,2.90
2018-12-11T07:25:30.747Z,2.80
2018-12-11T07:27:58.239Z,2.70
2018-12-11T07:30:25.699Z,2.70
2018-12-11T07:32:53.174Z,2.70
2018-12-11T07:35:20.640Z,2.70
2018-12-11T07:37:48.133Z,2.80
2018-12-11T07:40:15.597Z,2.80
2018-12-11T07:42:43.084Z,2.90
2018-12-11T07:45:10.629Z,2.90
2018-12-11T07:47:38.102Z,2.90
2018-12-11T07:50:05.722Z,3.00
2018-12-11T07:52:33.228Z,3.00
2018-12-11T07:55:00.717Z,3.00
2018-12-11T07:57:28.170Z,2.90
2018-12-11T07:59:55.652Z,2.80
2018-12-11T08:02:23.119Z,2.80
2018-12-11T08:04:50.599Z,2.80
2018-12-11T08:07:18.077Z,2.80
2018-12-11T08:09:45.555Z,2.90
2018-12-11T08:12:13.018Z,2.90
2018-12-11T08:14:40.504Z,3.00
2018-12-11T08:17:07.969Z,3.00
2018-12-11T08:19:35.499Z,3.10
2018-12-11T08:22:02.988Z,3.20
2018-12-11T08:24:30.466Z,3.20
2018-12-11T08:26:57.923Z,3.20
2018-12-11T08:29:25.416Z,3.30
2018-12-11T08:31:52.878Z,3.30
2018-12-11T08:34:20.360Z,3.40
2018-12-11T08:36:47.834Z,3.30
2018-12-11T08:39:15.342Z,3.40
2018-12-11T08:41:42.871Z,3.40
2018-12-11T08:44:10.334Z,3.40
2018-12-11T08:46:37.819Z,3.50
2018-12-11T08:49:05.279Z,3.40
2018-12-11T08:51:32.754Z,3.40
2018-12-11T08:54:00.249Z,3.50
2018-12-11T08:56:28.248Z,3.60
2018-12-11T08:58:55.718Z,3.60
2018-12-11T09:01:23.340Z,3.60
2018-12-11T09:03:50.807Z,3.70
2018-12-11T09:06:18.296Z,3.60
2018-12-11T09:08:45.822Z,3.60
2018-12-11T09:11:13.304Z,3.50
2018-12-11T09:13:40.769Z,3.50
2018-12-11T09:16:08.247Z,3.40
2018-12-11T09:18:35.783Z,3.40
2018-12-11T09:21:03.326Z,3.30
2018-12-11T09:23:30.783Z,3.30
2018-12-11T09:25:58.275Z,3.30
2018-12-11T09:28:25.739Z,3.40
2018-12-11T09:30:53.216Z,3.50
2018-12-11T09:33:20.725Z,3.70
2018-12-11T09:35:48.193Z,4.00
2018-12-11T09:38:15.679Z,4.10
2018-12-11T09:40:43.142Z,4.10
2018-12-11T09:43:10.622Z,4.00
2018-12-11T09:45:38.095Z,3.90
2018-12-11T09:48:05.579Z,3.90
2018-12-11T09:50:33.047Z,3.90
2018-12-11T09:53:00.525Z,4.00
2018-12-11T09:55:27.987Z,4.10
2018-12-11T09:57:55.467Z,4.10
2018-12-11T10:00:27.247Z,4.20
2018-12-11T10:02:52.428Z,4.20
2018-12-11T10:05:19.883Z,4.30
2018-12-11T10:07:47.367Z,4.40
2018-12-11T10:10:14.837Z,4.50
2018-12-11T10:12:42.347Z,4.70
2018-12-11T10:15:09.802Z,4.90
2018-12-11T10:17:37.380Z,5.00
2018-12-11T10:20:05.632Z,5.10
2018-12-11T10:22:33.092Z,5.20
2018-12-11T10:25:00.571Z,5.20
2018-12-11T10:27:28.026Z,5.10
2018-12-11T10:29:55.503Z,5.10
2018-12-11T10:32:22.968Z,5.10
2018-12-11T10:34:50.443Z,5.40
2018-12-11T10:37:17.908Z,5.60
2018-12-11T10:39:45.387Z,5.70
2018-12-11T10:42:12.847Z,5.80
2018-12-11T10:44:40.325Z,5.80
2018-12-11T10:47:07.791Z,5.70
2018-12-11T10:49:35.263Z,5.50
2018-12-11T10:52:02.727Z,5.60
2018-12-11T10:54:30.202Z,5.50
2018-12-11T10:56:57.675Z,5.60
2018-12-11T10:59:25.151Z,5.50
2018-12-11T11:01:52.887Z,5.40
2018-12-11T11:04:20.947Z,5.40
2018-12-11T11:06:48.493Z,5.30
2018-12-11T11:09:15.950Z,5.20
2018-12-11T11:11:43.435Z,5.20
2018-12-11T11:14:10.890Z,5.20
2018-12-11T11:16:38.371Z,5.20
2018-12-11T11:19:05.824Z,5.30
2018-12-11T11:21:33.332Z,5.30
2018-12-11T11:24:00.792Z,5.30
2018-12-11T11:26:28.269Z,5.50
2018-12-11T11:28:55.795Z,5.50
2018-12-11T11:31:23.327Z,5.40
2018-12-11T11:33:56.415Z,5.30
2018-12-11T11:36:20.303Z,5.10
2018-12-11T11:38:47.772Z,5.00
2018-12-11T11:41:15.240Z,5.10
2018-12-11T11:43:42.724Z,5.20
2018-12-11T11:46:10.217Z,5.30
2018-12-11T11:48:37.683Z,5.50
2018-12-11T11:51:05.151Z,5.60
2018-12-11T11:53:32.628Z,5.70
2018-12-11T11:56:00.107Z,5.90
2018-12-11T11:58:27.651Z,5.90
2018-12-11T12:00:55.116Z,6.00
2018-12-11T12:03:22.587Z,6.30
2018-12-11T12:05:50.100Z,6.50
2018-12-11T12:08:17.571Z,6.60
2018-12-11T12:10:45.028Z,6.60
2018-12-11T12:13:12.774Z,6.80
2018-12-11T12:15:40.250Z,6.50
2018-12-11T12:18:07.732Z,6.50
2018-12-11T12:20:35.277Z,6.50
2018-12-11T12:23:02.747Z,6.50
2018-12-11T12:25:30.216Z,6.60
2018-12-11T12:27:58.226Z,6.60
2018-12-11T12:30:41.841Z,6.70
2018-12-11T12:33:13.002Z,6.60
2018-12-11T12:35:47.811Z,6.50
2018-12-11T12:38:18.139Z,6.70
2018-12-11T12:40:52.179Z,6.60
2018-12-11T12:43:24.240Z,6.80
2018-12-11T12:48:58.681Z,6.60
2018-12-11T12:51:33.577Z,6.40
2018-12-11T12:54:04.839Z,6.40
2018-12-11T12:56:41.087Z,6.40
2018-12-11T12:59:17.004Z,6.30
2018-12-11T13:01:47.319Z,6.30
2018-12-11T13:04:32.348Z,6.30
2018-12-11T13:07:09.641Z,6.30
2018-12-11T13:09:52.688Z,6.30
2018-12-11T13:12:26.643Z,6.30
2018-12-11T13:15:07.442Z,6.20
2018-12-11T13:17:41.455Z,6.30
2018-12-11T13:20:20.021Z,6.30
2018-12-11T13:22:57.619Z,6.30
2018-12-11T13:25:34.910Z,6.30
2018-12-11T13:28:02.364Z,6.30
2018-12-11T13:30:29.844Z,6.20
2018-12-11T13:32:57.315Z,6.30
2018-12-11T13:35:25.307Z,6.20
2018-12-11T13:37:52.769Z,6.30
2018-12-11T13:40:20.373Z,6.30
2018-12-11T13:42:47.881Z,6.30
2018-12-11T13:45:15.581Z,6.20
2018-12-11T13:47:43.047Z,6.30
2018-12-11T13:50:10.530Z,6.20
2018-12-11T13:52:37.999Z,6.20
2018-12-11T13:55:05.580Z,6.10
2018-12-11T13:57:33.047Z,6.10
2018-12-11T14:00:00.517Z,6.10
2018-12-11T14:02:27.998Z,6.10
2018-12-11T14:04:55.451Z,6.10
2018-12-11T14:07:22.939Z,6.00
2018-12-11T14:09:50.394Z,5.90
2018-12-11T14:12:17.884Z,5.90
2018-12-11T14:14:45.340Z,6.00
2018-12-11T14:17:12.819Z,6.00
2018-12-11T14:19:40.384Z,5.90
2018-12-11T14:22:07.861Z,5.80
2018-12-11T14:24:35.314Z,5.80
2018-12-11T14:27:02.880Z,5.80
2018-12-11T14:29:30.425Z,5.70
2018-12-11T14:31:57.903Z,5.70
2018-12-11T14:34:25.368Z,5.70
2018-12-11T14:36:52.864Z,5.70
2018-12-11T14:39:20.407Z,5.70
2018-12-11T14:41:47.871Z,5.60
2018-12-11T14:44:15.531Z,5.60
2018-12-11T14:46:43.015Z,5.60
2018-12-11T14:49:10.491Z,5.50
2018-12-11T14:51:38.183Z,5.40
2018-12-11T14:54:05.707Z,5.40
2018-12-11T14:56:33.559Z,5.40
2018-12-11T14:59:01.027Z,5.40
2018-12-11T15:01:28.539Z,5.40
2018-12-11T15:03:56.024Z,5.40
2018-12-11T15:06:23.479Z,5.30
2018-12-11T15:08:50.976Z,5.40
2018-12-11T15:11:18.455Z,5.20
2018-12-11T15:13:45.939Z,5.30
2018-12-11T15:16:15.420Z,5.20
2018-12-11T15:18:42.933Z,5.10
2018-12-11T15:21:10.418Z,5.10
2018-12-11T15:23:37.919Z,5.00
2018-12-11T15:26:05.544Z,4.90
2018-12-11T15:28:33.183Z,4.90
2018-12-11T15:31:08.417Z,4.90
2018-12-11T15:33:35.883Z,5.00
2018-12-11T15:36:03.370Z,4.90
2018-12-11T15:38:30.830Z,5.00
2018-12-11T15:40:58.319Z,4.90
2018-12-11T15:43:26.176Z,4.80
2018-12-11T15:45:53.664Z,4.80
2018-12-11T15:48:21.231Z,4.70
2018-12-11T15:50:48.720Z,4.70
2018-12-11T15:53:16.190Z,4.70
2018-12-11T15:55:43.661Z,4.70
2018-12-11T15:58:11.134Z,4.60
2018-12-11T16:00:38.614Z,4.60
2018-12-11T16:03:06.194Z,4.60
2018-12-11T16:05:33.661Z,4.80
2018-12-11T16:08:01.140Z,4.70
2018-12-11T16:10:28.603Z,4.70
2018-12-11T16:12:56.091Z,4.60
2018-12-11T16:15:23.557Z,4.50
2018-12-11T16:17:51.015Z,4.50
2018-12-11T16:20:18.503Z,4.50
2018-12-11T16:22:45.962Z,4.60
2018-12-11T16:25:13.719Z,4.60
2018-12-11T16:27:41.354Z,4.60
2018-12-11T16:30:08.919Z,4.60
2018-12-11T16:32:36.382Z,4.50
2018-12-11T16:35:04.918Z,4.50
2018-12-11T16:37:33.486Z,4.50
2018-12-11T16:40:04.565Z,4.50
2018-12-11T16:42:30.456Z,4.50
2018-12-11T16:44:57.948Z,4.40
2018-12-11T16:47:25.411Z,4.40
2018-12-11T16:49:52.891Z,5.70
2018-12-11T16:52:20.480Z,4.50
2018-12-11T16:54:47.956Z,4.50
2018-12-11T16:57:15.424Z,4.50
2018-12-11T16:59:42.916Z,4.50
2018-12-11T17:02:10.371Z,4.50
2018-12-11T17:04:37.936Z,4.50
2018-12-11T17:07:05.470Z,4.50
2018-12-11T17:09:34.424Z,4.50
2018-12-11T17:12:02.071Z,4.60
2018-12-11T17:14:29.551Z,4.60
2018-12-11T17:16:57.133Z,4.50
2018-12-11T17:19:24.606Z,4.50
2018-12-11T17:21:52.066Z,4.50
2018-12-11T17:24:19.543Z,4.40
2018-12-11T17:26:47.824Z,4.40
2018-12-11T17:29:15.391Z,4.30
2018-12-11T17:31:43.048Z,4.20
2018-12-11T17:34:10.516Z,4.30
2018-12-11T17:36:37.995Z,4.30
2018-12-11T17:39:07.040Z,4.40
2018-12-11T17:41:34.499Z,4.40
2018-12-11T17:44:02.168Z,4.40
2018-12-11T17:46:29.633Z,4.40
2018-12-11T17:48:57.107Z,4.40
2018-12-11T17:51:24.583Z,4.40
2018-12-11T17:53:52.060Z,4.50
2018-12-11T17:56:19.542Z,4.50
2018-12-11T17:58:47.022Z,4.40
2018-12-11T18:01:14.516Z,4.40
2018-12-11T18:03:41.975Z,4.50
2018-12-11T18:06:09.460Z,4.40
2018-12-11T18:08:36.929Z,4.50
2018-12-11T18:11:05.496Z,4.50
2018-12-11T18:13:33.148Z,4.40
2018-12-11T18:16:00.707Z,4.40
2018-12-11T18:18:28.168Z,4.50
2018-12-11T18:20:55.731Z,4.60
2018-12-11T18:23:23.179Z,4.70
2018-12-11T18:25:50.638Z,4.70
2018-12-11T18:28:18.107Z,4.70
2018-12-11T18:30:45.579Z,4.60
2018-12-11T18:33:13.047Z,4.60
2018-12-11T18:35:40.528Z,4.40
2018-12-11T18:38:08.092Z,4.30
2018-12-11T18:40:35.548Z,4.20
2018-12-11T18:43:03.058Z,4.00
2018-12-11T18:45:30.972Z,3.90
2018-12-11T18:47:58.539Z,3.90
2018-12-11T18:50:26.151Z,3.90
2018-12-11T18:52:53.643Z,3.90
2018-12-11T18:55:21.123Z,3.90
2018-12-11T18:57:48.586Z,3.90
2018-12-11T19:00:16.102Z,3.90
2018-12-11T19:02:43.624Z,3.90
2018-12-11T19:05:11.184Z,3.80
2018-12-11T19:07:38.655Z,3.70
2018-12-11T19:10:06.322Z,3.70
2018-12-11T19:12:33.787Z,3.70
2018-12-11T19:15:04.702Z,3.60
2018-12-11T19:17:30.776Z,3.60
2018-12-11T19:19:58.367Z,3.60
2018-12-11T19:22:25.915Z,3.10
2018-12-11T19:24:53.569Z,3.70
2018-12-11T19:27:21.040Z,3.80
2018-12-11T19:29:48.527Z,3.70
2018-12-11T19:32:16.191Z,3.80
2018-12-11T19:34:43.675Z,3.80
2018-12-11T19:37:11.139Z,3.60
2018-12-11T19:39:38.617Z,3.40
2018-12-11T19:42:06.166Z,3.30
2018-12-11T19:44:33.636Z,3.20
2018-12-11T19:47:01.130Z,3.20
2018-12-11T19:49:28.648Z,3.20
2018-12-11T19:51:56.137Z,3.20
2018-12-11T19:54:23.599Z,3.10
2018-12-11T19:56:51.094Z,3.10
2018-12-11T19:59:18.558Z,3.10
2018-12-11T20:01:46.047Z,3.10
2018-12-11T20:04:13.587Z,3.00
2018-12-11T20:06:41.071Z,3.10
2018-12-11T20:09:08.540Z,3.00
2018-12-11T20:11:36.011Z,2.90
2018-12-11T20:14:03.566Z,2.80
2018-12-11T20:16:31.031Z,2.80
2018-12-11T20:18:58.515Z,2.70
2018-12-11T20:21:25.978Z,2.70
2018-12-11T20:23:53.461Z,2.70
2018-12-11T20:26:20.923Z,2.70
2018-12-11T20:28:48.411Z,2.80
2018-12-11T20:31:16.321Z,2.70
2018-12-11T20:33:43.839Z,2.70
2018-12-11T20:36:11.329Z,2.70
2018-12-11T20:38:38.812Z,2.70
2018-12-11T20:41:06.280Z,2.60
2018-12-11T20:43:33.823Z,2.50
2018-12-11T20:46:01.475Z,2.60
2018-12-11T20:48:29.120Z,2.50
2018-12-11T20:50:56.599Z,2.50
2018-12-11T20:53:24.075Z,2.50
2018-12-11T20:55:51.563Z,2.50
2018-12-11T20:58:19.026Z,2.40
2018-12-11T21:00:46.511Z,2.40
2018-12-11T21:03:13.996Z,2.50
2018-12-11T21:05:41.467Z,2.40
2018-12-11T21:08:08.930Z,2.40
2018-12-11T21:10:37.326Z,2.40
2018-12-11T21:13:04.788Z,2.30
2018-12-11T21:15:32.263Z,2.20
2018-12-11T21:17:59.744Z,2.30
2018-12-11T21:23:13.665Z,2.40
2018-12-11T21:25:41.198Z,2.40
2018-12-11T21:28:08.773Z,2.50
2018-12-11T21:30:36.275Z,2.40
2018-12-11T21:33:03.764Z,2.50
2018-12-11T21:35:31.239Z,2.40
2018-12-11T21:37:58.952Z,2.40
2018-12-11T21:40:26.443Z,2.40
2018-12-11T21:42:54.178Z,2.40
2018-12-11T21:45:21.727Z,2.30
2018-12-11T21:47:49.376Z,2.30
2018-12-11T21:50:17.028Z,2.40
2018-12-11T21:52:44.523Z,2.30
2018-12-11T21:55:12.758Z,2.30
2018-12-11T21:57:40.295Z,2.20
2018-12-11T22:00:08.861Z,2.20
2018-12-11T22:02:36.416Z,2.30
2018-12-11T22:05:04.759Z,2.30
2018-12-11T22:07:32.288Z,2.30
2018-12-11T22:09:59.803Z,2.20
2018-12-11T22:12:28.068Z,2.10
2018-12-11T22:14:55.584Z,2.10
2018-12-11T22:17:23.094Z,2.10
2018-12-11T22:19:50.592Z,2.00
2018-12-11T22:22:18.067Z,2.00
2018-12-11T22:25:10.344Z,2.10
2018-12-11T22:27:37.824Z,2.10
2018-12-11T22:30:12.263Z,2.00
2018-12-11T22:32:39.807Z,2.00
2018-12-11T22:35:07.352Z,2.00
2018-12-11T22:37:34.835Z,1.90
2018-12-11T22:40:02.403Z,1.90
2018-12-11T22:42:29.914Z,1.90
2018-12-11T22:44:57.391Z,1.70
2018-12-11T22:47:24.891Z,1.70
2018-12-11T22:49:52.451Z,1.60
2018-12-11T22:52:19.943Z,1.60
2018-12-11T22:54:47.506Z,1.50
2018-12-11T22:57:14.999Z,1.50
2018-12-11T22:59:42.475Z,1.40
2018-12-11T23:02:09.976Z,1.40
2018-12-11T23:04:37.460Z,1.40
2018-12-11T23:07:04.951Z,1.40
2018-12-11T23:09:32.438Z,1.40
2018-12-11T23:11:59.937Z,1.30
2018-12-11T23:14:27.431Z,1.30
2018-12-11T23:16:54.911Z,1.30
2018-12-11T23:19:22.403Z,1.30
2018-12-11T23:21:49.990Z,1.30
2018-12-11T23:24:17.492Z,1.30
2018-12-11T23:26:44.988Z,1.30
2018-12-11T23:29:12.470Z,1.20
2018-12-11T23:31:40.169Z,1.20
2018-12-11T23:34:07.771Z,1.30
2018-12-11T23:36:35.247Z,1.40
2018-12-11T23:39:02.897Z,1.40
2018-12-11T23:41:30.372Z,1.40
2018-12-11T23:43:57.862Z,1.50
2018-12-11T23:46:25.343Z,1.50
2018-12-11T23:48:52.828Z,1.60
2018-12-11T23:51:20.322Z,1.60
2018-12-11T23:53:47.805Z,1.60
2018-12-11T23:56:22.404Z,1.70
2018-12-11T23:58:49.892Z,1.70
